»·PEaware :: COA212 KSFO-KSNA

COA212 :: KSFO-KSNA

FLIGHT INFORMATION

Flight Status: Arrived
Operator:
Continental Air Lines
More flights by this operator :: More flights under this callsign
Pilot: Andrew C. (28419)
Aircraft: BOEING 737-800
(B738)
More flights by this aircraft type
Origin: KSFO San Francisco Intl
United States
Destination: KSNA John Wayne-Orange Co
United States
More flights between these airports :: More routes between these airports
Route: +OFFSH2 MCKEY TILLT TILLT2
File this flight plan on PilotEdge
Remarks: RMK / SIMBRIEF
Altitude:
(Current/Filed)
37,000ft
Speed:
(Current/Filed)
464kts
Departed: 13-Sep-20 08:09 PM
Arrived: 13-Sep-20 09:18 PM
Distance/Time
Traveled:
323nm/1:08
Distance/Time
To Go:
Arrived

Flight Plot

Page will automatically refresh every two minutes.

Flight plan parsing failed; only flown route is shown


Map Options




Map Legend


Flown Route
Filed Route
Departure Airport
Arrival Airport
Navaid (VOR, NDB)
Fix

Horizontal Profiles

Position Reports

Time Latitude Longitude Heading Altitude Ground
Speed
13-Sep-20 19:43 37.621202 -122.389288 205 19ft 0kts
13-Sep-20 19:44 37.621202 -122.389288 205 19ft 0kts
13-Sep-20 19:45 37.621202 -122.389288 205 19ft 0kts
13-Sep-20 19:46 37.621202 -122.389288 205 19ft 0kts
13-Sep-20 19:47 37.621202 -122.389288 205 19ft 0kts
13-Sep-20 19:48 37.621202 -122.389288 205 19ft 0kts
13-Sep-20 19:49 37.621202 -122.389288 205 19ft 0kts
13-Sep-20 19:50 37.621202 -122.389288 205 19ft 0kts
13-Sep-20 19:51 37.621202 -122.389288 205 19ft 0kts
13-Sep-20 19:52 37.621202 -122.389288 205 19ft 0kts
13-Sep-20 19:53 37.621202 -122.389288 205 19ft 0kts
13-Sep-20 19:54 37.621202 -122.389288 205 19ft 0kts
13-Sep-20 19:55 37.621202 -122.389288 205 19ft 0kts
13-Sep-20 19:56 37.621202 -122.389288 205 19ft 0kts
13-Sep-20 19:57 37.621202 -122.389288 205 19ft 0kts
13-Sep-20 19:58 37.621202 -122.389288 205 19ft 0kts
13-Sep-20 19:59 37.621203 -122.389287 205 19ft 0kts
13-Sep-20 20:00 37.621631 -122.389033 205 19ft 1kts
13-Sep-20 20:01 37.621858 -122.389293 78 19ft 0kts
13-Sep-20 20:02 37.621858 -122.389293 78 19ft 0kts
13-Sep-20 20:03 37.621911 -122.388994 78 19ft 6kts
13-Sep-20 20:04 37.620043 -122.382913 117 19ft 22kts
13-Sep-20 20:05 37.615801 -122.380386 207 19ft 17kts
13-Sep-20 20:06 37.610728 -122.383587 208 19ft 21kts
13-Sep-20 20:07 37.608912 -122.383598 118 19ft 0kts
13-Sep-20 20:08 37.609920 -122.381618 26 19ft 55kts
13-Sep-20 20:09 37.648224 -122.362472 1 1383ft 196kts
13-Sep-20 20:10 37.713478 -122.374401 320 3507ft 258kts
13-Sep-20 20:11 37.699173 -122.442243 194 6375ft 257kts
13-Sep-20 20:12 37.634856 -122.482361 215 9590ft 271kts
13-Sep-20 20:13 37.568031 -122.545987 214 11226ft 333kts
13-Sep-20 20:14 37.495380 -122.609403 204 13816ft 348kts
13-Sep-20 20:15 37.411351 -122.579145 146 16271ft 366kts
13-Sep-20 20:16 37.338922 -122.513557 146 18377ft 380kts
13-Sep-20 20:17 37.258026 -122.440770 147 20444ft 395kts
13-Sep-20 20:18 37.174801 -122.370583 149 22279ft 407kts
13-Sep-20 20:19 37.077041 -122.293862 150 22999ft 412kts
13-Sep-20 20:20 36.979312 -122.218845 150 23000ft 413kts
13-Sep-20 20:21 36.880444 -122.143060 150 24379ft 423kts
13-Sep-20 20:22 36.778395 -122.064907 150 26075ft 435kts
13-Sep-20 20:23 36.673756 -121.984896 151 27586ft 447kts
13-Sep-20 20:24 36.566259 -121.902831 151 29007ft 458kts
13-Sep-20 20:25 36.457203 -121.819676 152 30646ft 459kts
13-Sep-20 20:26 36.348612 -121.736989 153 32260ft 457kts
13-Sep-20 20:27 36.240354 -121.654694 153 33776ft 455kts
13-Sep-20 20:28 36.132676 -121.572998 154 35216ft 452kts
13-Sep-20 20:29 36.026053 -121.492262 154 36480ft 449kts
13-Sep-20 20:30 35.918823 -121.411234 154 37000ft 459kts
13-Sep-20 20:31 35.810973 -121.329832 154 37027ft 454kts
13-Sep-20 20:32 35.703131 -121.248548 154 37027ft 456kts
13-Sep-20 20:33 35.594402 -121.166731 154 37026ft 457kts
13-Sep-20 20:34 35.487077 -121.082508 142 37021ft 465kts
13-Sep-20 20:35 35.406756 -120.960856 139 37000ft 470kts
13-Sep-20 20:36 35.311415 -120.852022 142 37030ft 468kts
13-Sep-20 20:37 35.213085 -120.742791 142 37036ft 480kts
13-Sep-20 20:38 35.113693 -120.634592 142 37036ft 476kts
13-Sep-20 20:39 35.010538 -120.534925 150 37036ft 473kts
13-Sep-20 20:40 34.901304 -120.445174 150 37036ft 472kts
13-Sep-20 20:41 34.792006 -120.356498 150 37036ft 474kts
13-Sep-20 20:42 34.681711 -120.267464 151 37036ft 475kts
13-Sep-20 20:43 34.571505 -120.179435 150 37027ft 476kts
13-Sep-20 20:44 34.460965 -120.091201 150 37010ft 475kts
13-Sep-20 20:45 34.350699 -120.003391 150 36994ft 474kts
13-Sep-20 20:46 34.239765 -119.915331 150 36220ft 485kts
13-Sep-20 20:47 34.130286 -119.828597 150 33711ft 467kts
13-Sep-20 20:48 34.040456 -119.715040 123 29937ft 480kts
13-Sep-20 20:49 33.973286 -119.581850 122 27890ft 452kts
13-Sep-20 20:50 33.909753 -119.455464 121 25756ft 431kts
13-Sep-20 20:51 33.850663 -119.336411 121 24005ft 406kts
13-Sep-20 20:52 33.793979 -119.221383 120 21994ft 391kts
13-Sep-20 20:53 33.739485 -119.111076 120 19987ft 378kts
13-Sep-20 20:54 33.686444 -119.004179 121 17982ft 367kts
13-Sep-20 20:55 33.634851 -118.900573 120 15970ft 356kts
13-Sep-20 20:56 33.584825 -118.800372 118 13941ft 346kts
13-Sep-20 20:58 33.558688 -118.691381 100 11820ft 336kts
13-Sep-20 20:59 33.541339 -118.585306 101 10531ft 305kts
13-Sep-20 21:00 33.525954 -118.491124 101 9428ft 275kts
13-Sep-20 21:01 33.519973 -118.400328 92 8097ft 271kts
13-Sep-20 21:02 33.525217 -118.310848 72 7009ft 263kts
13-Sep-20 21:03 33.550082 -118.232675 69 6334ft 235kts
13-Sep-20 21:04 33.576495 -118.161720 57 5030ft 230kts
13-Sep-20 21:05 33.611999 -118.098133 56 5000ft 230kts
13-Sep-20 21:06 33.647778 -118.034266 55 5000ft 230kts
13-Sep-20 21:07 33.699636 -117.989346 31 5000ft 230kts
13-Sep-20 21:08 33.754229 -117.948961 31 4999ft 230kts
13-Sep-20 21:09 33.808965 -117.908465 31 4999ft 230kts
13-Sep-20 21:10 33.863462 -117.868095 31 4992ft 225kts
13-Sep-20 21:11 33.907421 -117.826850 76 4198ft 196kts
13-Sep-20 21:12 33.908129 -117.762115 97 3997ft 194kts
13-Sep-20 21:13 33.865963 -117.745430 209 3875ft 186kts
13-Sep-20 21:14 33.820585 -117.776676 208 3015ft 189kts
13-Sep-20 21:14 33.781534 -117.801593 207 2296ft 186kts
13-Sep-20 21:16 33.734429 -117.831525 207 1266ft 146kts
13-Sep-20 21:17 33.698652 -117.854221 208 476ft 144kts
13-Sep-20 21:17 33.673743 -117.870081 208 66ft 33kts
13-Sep-20 21:19 33.669148 -117.871548 120 66ft 0kts
13-Sep-20 21:19 33.670280 -117.869710 41 66ft 21kts
13-Sep-20 21:20 33.674566 -117.866190 27 66ft 15kts
13-Sep-20 21:21 33.675749 -117.864702 119 66ft 1kts
13-Sep-20 21:22 33.675727 -117.864652 118 66ft 0kts
13-Sep-20 21:23 33.675727 -117.864652 118 66ft 0kts
13-Sep-20 21:24 33.675727 -117.864652 118 66ft 0kts
13-Sep-20 21:25 33.675727 -117.864651 118 67ft 0kts
13-Sep-20 21:26 33.675727 -117.864651 118 67ft 0kts
13-Sep-20 21:27 33.675727 -117.864651 118 67ft 0kts
13-Sep-20 21:28 33.675727 -117.864651 118 67ft 0kts

Navigation Log

Ident Type
Flight plan parsing failed, navigation log unavailable